Aeroporto :
LOGIN :

Iscrizione | Disclaimer

   EN    FR    IT 

 










Sommario :    VFR   VFR Marginale   IFR   IFR Intensivo   IFR Molto Intensivo
Visibilità : 
Base nubi : 
>= 8 km
>= 3000ft
5 / 8 km
1000 / 3000 ft
1500m / 5 km
500 / 1000 ft
800 / 1500m
200 / 500 ft
< 800m
< 200 ft
Simboli :   Temporali  Nebbia  Neve Forte  Precipitazioni Forti  Vento > 20 kt
SIGMETs :   Varie  Temporali  Ghiacco  Turbolenza  Onda orograficha  Ceneri Vulcaniche






- Altitudine del aeroporto : 529 ft
- Codice IATA : CHR


LFLX - Chateauroux

ULTIMO METAR :
  • 041430Z AUTO 03002KT 5000 -RA BR OVC006 04/03 Q1011 NOSIG

METARs OBSOLETI :
  • 041400Z AUTO 02003KT 6000 -RA OVC006/// //////TCU 04/03 Q1010 TEMPO FEW006 OVC008
  • 041330Z AUTO VRB02KT 9000 OVC006/// //////TCU 04/03 Q1010 TEMPO FEW006 OVC008
  • 041300Z AUTO 01003KT 9999 OVC006 04/03 Q1010 NOSIG
  • 041230Z AUTO VRB03KT 8000 OVC006 04/03 Q1010 NOSIG
  • 041200Z AUTO 03006KT 8000 OVC006 04/03 Q1010 NOSIG

TAF TAF LFLX
Valido dal 04 a 12 ore il 05 a 18 ore UTC


041106Z 0412/0518 02004KT 9999 SCT008 OVC015
TEMPO 0412/0423 5000 -RADZ FEW006 OVC008
TEMPO 0423/0512 BKN010
PROB30
TEMPO 0500/0509 3000 -DZ BR OVC003



MetMap, La meteo Aeronautica in un colpo d'occhio ! - Copyright ORBIFLY Dicembre 2007 - Disclaimer

ORBIFLY MET'MAP TEAM :

Programmazione e sviluppo : Alexandra Zaïnal
Concezione : Baudouin d'Aumeries
Supporto tecnico e logistico : Manuel Goepfert
Aiuto : Marc-Olivier Méhu
Aiuto per la traduzione : Arnaldo La Scala




FONTI E CREDITI :

   NOAA